createdAt,value
2023-12-15T00:00:57.016Z,640.00
2023-12-15T00:01:56.983Z,638.00
2023-12-15T00:02:56.983Z,636.00
2023-12-15T00:03:56.999Z,635.00
2023-12-15T00:04:56.984Z,633.00
2023-12-15T00:05:56.997Z,632.00
2023-12-15T00:06:57.024Z,631.00
2023-12-15T00:07:57.093Z,628.00
2023-12-15T00:08:57.052Z,629.00
2023-12-15T00:09:57.989Z,629.00
2023-12-15T00:10:57.197Z,630.00
2023-12-15T00:11:57.176Z,630.00
2023-12-15T00:12:57.219Z,629.00
2023-12-15T00:13:57.247Z,627.00
2023-12-15T00:14:57.242Z,626.00
2023-12-15T00:15:57.282Z,626.00
2023-12-15T00:16:57.371Z,626.00
2023-12-15T00:17:57.585Z,628.00
2023-12-15T00:18:57.600Z,626.00
2023-12-15T00:19:57.735Z,627.00
2023-12-15T00:20:57.868Z,627.00
2023-12-15T00:21:57.738Z,625.00
2023-12-15T00:22:57.755Z,624.00
2023-12-15T00:23:57.789Z,624.00
2023-12-15T00:24:57.766Z,623.00
2023-12-15T00:25:57.829Z,623.00
2023-12-15T00:26:57.853Z,623.00
2023-12-15T00:27:57.946Z,620.00
2023-12-15T00:28:58.087Z,620.00
2023-12-15T00:29:58.209Z,621.00
2023-12-15T00:30:58.129Z,625.00
2023-12-15T00:31:58.178Z,627.00
2023-12-15T00:32:58.221Z,628.00
2023-12-15T00:33:58.217Z,632.00
2023-12-15T00:34:58.169Z,632.00
2023-12-15T00:35:58.177Z,631.00
2023-12-15T00:36:58.318Z,629.00
2023-12-15T00:37:58.335Z,626.00
2023-12-15T00:38:58.345Z,624.00
2023-12-15T00:39:58.319Z,623.00
2023-12-15T00:40:58.387Z,622.00
2023-12-15T00:41:58.356Z,621.00
2023-12-15T00:42:58.463Z,619.00
2023-12-15T00:43:58.526Z,619.00
2023-12-15T00:44:58.637Z,617.00
2023-12-15T00:45:58.631Z,615.00
2023-12-15T00:46:58.623Z,616.00
2023-12-15T00:47:58.668Z,616.00
2023-12-15T00:48:58.695Z,618.00
2023-12-15T00:49:58.686Z,618.00
2023-12-15T00:50:58.702Z,618.00
2023-12-15T00:51:58.737Z,620.00
2023-12-15T00:52:58.878Z,620.00
2023-12-15T00:53:58.787Z,617.00
2023-12-15T00:54:58.816Z,615.00
2023-12-15T00:55:58.885Z,615.00
2023-12-15T00:56:58.871Z,617.00
2023-12-15T00:57:58.911Z,616.00
2023-12-15T00:58:58.932Z,616.00
2023-12-15T00:59:58.940Z,612.00
2023-12-15T01:00:58.953Z,612.00
2023-12-15T01:01:58.998Z,614.00
2023-12-15T01:02:59.034Z,614.00
2023-12-15T01:03:59.008Z,615.00
2023-12-15T01:04:59.077Z,618.00
2023-12-15T01:05:59.160Z,616.00
2023-12-15T01:06:59.047Z,616.00
2023-12-15T01:07:59.149Z,618.00
2023-12-15T01:08:59.145Z,617.00
2023-12-15T01:09:59.129Z,616.00
2023-12-15T01:10:59.199Z,616.00
2023-12-15T01:11:59.157Z,617.00
2023-12-15T01:12:59.189Z,618.00
2023-12-15T01:13:59.316Z,618.00
2023-12-15T01:14:59.370Z,617.00
2023-12-15T01:15:59.390Z,617.00
2023-12-15T01:16:59.403Z,619.00
2023-12-15T01:17:59.512Z,622.00
2023-12-15T01:18:59.549Z,621.00
2023-12-15T01:19:59.480Z,619.00
2023-12-15T01:20:59.489Z,617.00
2023-12-15T01:21:59.659Z,614.00
2023-12-15T01:22:59.763Z,613.00
2023-12-15T01:23:59.831Z,611.00
2023-12-15T01:24:59.934Z,610.00
2023-12-15T01:26:00.077Z,611.00
2023-12-15T01:27:00.043Z,610.00
2023-12-15T01:28:00.053Z,612.00
2023-12-15T01:29:00.039Z,612.00
2023-12-15T01:30:00.063Z,613.00
2023-12-15T01:31:00.088Z,612.00
2023-12-15T01:32:00.318Z,613.00
2023-12-15T01:33:00.314Z,612.00
2023-12-15T01:34:00.431Z,613.00
2023-12-15T01:35:00.575Z,613.00
2023-12-15T01:36:00.610Z,614.00
2023-12-15T01:37:00.704Z,616.00
2023-12-15T01:38:00.787Z,618.00
2023-12-15T01:39:00.873Z,620.00
2023-12-15T01:40:01.023Z,622.00
2023-12-15T01:41:00.978Z,623.00
2023-12-15T01:42:01.004Z,623.00
2023-12-15T01:43:01.044Z,625.00
2023-12-15T01:44:01.022Z,625.00
2023-12-15T01:45:01.104Z,628.00
2023-12-15T01:46:05.690Z,627.00
2023-12-15T01:47:02.132Z,625.00
2023-12-15T01:48:01.304Z,623.00
2023-12-15T01:49:01.212Z,620.00
2023-12-15T01:50:01.174Z,618.00
2023-12-15T01:51:01.096Z,618.00
2023-12-15T01:52:01.094Z,620.00
2023-12-15T01:53:01.185Z,619.00
2023-12-15T01:54:01.103Z,618.00
2023-12-15T01:55:01.135Z,618.00
2023-12-15T01:56:01.280Z,618.00
2023-12-15T01:57:01.128Z,619.00
2023-12-15T01:58:01.169Z,621.00
2023-12-15T01:59:01.166Z,622.00
2023-12-15T02:00:01.180Z,623.00
2023-12-15T02:01:01.333Z,620.00
2023-12-15T02:02:01.205Z,619.00
2023-12-15T02:03:01.141Z,618.00
2023-12-15T02:04:01.217Z,620.00
2023-12-15T02:05:01.249Z,620.00
2023-12-15T02:06:01.263Z,618.00
2023-12-15T02:07:01.150Z,618.00
2023-12-15T02:08:01.188Z,620.00
2023-12-15T02:09:01.147Z,619.00
2023-12-15T02:10:01.158Z,621.00
2023-12-15T02:11:01.200Z,618.00
2023-12-15T02:12:01.183Z,616.00
2023-12-15T02:13:01.170Z,614.00
2023-12-15T02:14:01.149Z,614.00
2023-12-15T02:15:01.140Z,615.00
2023-12-15T02:16:01.169Z,616.00
2023-12-15T02:17:01.182Z,616.00
2023-12-15T02:18:01.287Z,616.00
2023-12-15T02:19:01.352Z,616.00
2023-12-15T02:20:01.387Z,613.00
2023-12-15T02:21:01.399Z,613.00
2023-12-15T02:22:01.471Z,614.00
2023-12-15T02:23:01.584Z,613.00
2023-12-15T02:24:01.614Z,614.00
2023-12-15T02:25:01.670Z,615.00
2023-12-15T02:26:01.798Z,618.00
2023-12-15T02:27:01.787Z,619.00
2023-12-15T02:28:01.829Z,618.00
2023-12-15T02:29:01.950Z,618.00
2023-12-15T02:30:01.937Z,617.00
2023-12-15T02:31:02.015Z,616.00
2023-12-15T02:32:02.097Z,617.00
2023-12-15T02:33:02.245Z,618.00
2023-12-15T02:34:02.256Z,620.00
2023-12-15T02:35:02.225Z,621.00
2023-12-15T02:36:02.172Z,621.00
2023-12-15T02:37:02.232Z,623.00
2023-12-15T02:38:02.361Z,624.00
2023-12-15T02:39:02.298Z,623.00
2023-12-15T02:40:02.346Z,625.00
2023-12-15T02:41:02.377Z,625.00
2023-12-15T02:42:02.396Z,624.00
2023-12-15T02:43:02.436Z,624.00
2023-12-15T02:44:02.516Z,623.00
2023-12-15T02:45:02.534Z,621.00
2023-12-15T02:46:02.527Z,622.00
2023-12-15T02:47:02.593Z,624.00
2023-12-15T02:48:02.781Z,625.00
2023-12-15T02:49:02.646Z,623.00
2023-12-15T02:50:02.700Z,620.00
2023-12-15T02:51:03.556Z,619.00
2023-12-15T02:52:02.669Z,617.00
2023-12-15T02:53:02.704Z,617.00
2023-12-15T02:54:02.726Z,617.00
2023-12-15T02:55:02.741Z,617.00
2023-12-15T02:56:02.829Z,619.00
2023-12-15T02:57:02.770Z,616.00
2023-12-15T02:58:02.844Z,617.00
2023-12-15T02:59:02.854Z,616.00
2023-12-15T03:00:02.854Z,618.00
2023-12-15T03:01:02.862Z,618.00
2023-12-15T03:02:02.915Z,616.00
2023-12-15T03:03:02.901Z,616.00
2023-12-15T03:04:02.908Z,616.00
2023-12-15T03:05:02.911Z,616.00
2023-12-15T03:06:02.956Z,617.00
2023-12-15T03:07:02.936Z,614.00
2023-12-15T03:08:02.944Z,612.00
2023-12-15T03:09:02.938Z,611.00
2023-12-15T03:10:02.935Z,610.00
2023-12-15T03:11:02.976Z,612.00
2023-12-15T03:12:02.949Z,614.00
2023-12-15T03:13:03.014Z,614.00
2023-12-15T03:14:03.064Z,614.00
2023-12-15T03:15:03.004Z,617.00
2023-12-15T03:16:03.152Z,618.00
2023-12-15T03:17:03.282Z,617.00
2023-12-15T03:18:03.246Z,616.00
2023-12-15T03:19:03.284Z,615.00
2023-12-15T03:20:03.378Z,617.00
2023-12-15T03:21:03.390Z,615.00
2023-12-15T03:22:03.453Z,616.00
2023-12-15T03:23:03.513Z,618.00
2023-12-15T03:24:03.578Z,621.00
2023-12-15T03:25:03.719Z,619.00
2023-12-15T03:26:03.750Z,618.00
2023-12-15T03:27:03.771Z,616.00
2023-12-15T03:28:03.833Z,617.00
2023-12-15T03:29:03.931Z,617.00
2023-12-15T03:30:03.935Z,620.00
2023-12-15T03:31:04.026Z,623.00
2023-12-15T03:32:04.112Z,623.00
2023-12-15T03:33:04.185Z,622.00
2023-12-15T03:34:04.127Z,621.00
2023-12-15T03:35:04.270Z,619.00
2023-12-15T03:36:04.161Z,618.00
2023-12-15T03:37:04.163Z,618.00
2023-12-15T03:38:04.278Z,619.00
2023-12-15T03:39:04.240Z,620.00
2023-12-15T03:40:04.248Z,620.00
2023-12-15T03:41:04.281Z,620.00
2023-12-15T03:42:04.311Z,622.00
2023-12-15T03:43:04.418Z,625.00
2023-12-15T03:44:04.544Z,624.00
2023-12-15T03:45:04.565Z,623.00
2023-12-15T03:46:04.606Z,620.00
2023-12-15T03:47:04.675Z,623.00
2023-12-15T03:48:04.874Z,623.00
2023-12-15T03:49:04.779Z,623.00
2023-12-15T03:50:04.816Z,624.00
2023-12-15T03:51:04.869Z,623.00
2023-12-15T03:52:04.900Z,623.00
2023-12-15T03:53:05.015Z,622.00
2023-12-15T03:54:05.061Z,621.00
2023-12-15T03:55:05.098Z,620.00
2023-12-15T03:56:05.169Z,617.00
2023-12-15T03:57:05.203Z,615.00
2023-12-15T03:58:05.269Z,615.00
2023-12-15T03:59:05.370Z,616.00
2023-12-15T04:00:05.386Z,616.00
2023-12-15T04:01:05.493Z,612.00
2023-12-15T04:02:07.489Z,612.00
2023-12-15T04:03:05.547Z,612.00
2023-12-15T04:04:05.541Z,612.00
2023-12-15T04:05:05.609Z,615.00
2023-12-15T04:06:05.581Z,615.00
2023-12-15T04:07:05.565Z,614.00
2023-12-15T04:08:05.538Z,614.00
2023-12-15T04:09:05.520Z,615.00
2023-12-15T04:10:05.521Z,617.00
2023-12-15T04:11:05.595Z,617.00
2023-12-15T04:12:05.529Z,616.00
2023-12-15T04:13:05.545Z,618.00
2023-12-15T04:14:05.585Z,617.00
2023-12-15T04:15:05.533Z,619.00
2023-12-15T04:16:05.528Z,618.00
2023-12-15T04:17:05.572Z,621.00
2023-12-15T04:18:05.961Z,621.00
2023-12-15T04:19:05.599Z,620.00
2023-12-15T04:20:05.638Z,618.00
2023-12-15T04:21:05.675Z,618.00
2023-12-15T04:22:05.537Z,620.00
2023-12-15T04:23:05.619Z,620.00
2023-12-15T04:24:05.548Z,621.00
2023-12-15T04:25:05.530Z,622.00
2023-12-15T04:26:05.613Z,624.00
2023-12-15T04:27:05.616Z,621.00
2023-12-15T04:28:05.587Z,620.00
2023-12-15T04:29:05.634Z,621.00
2023-12-15T04:30:05.820Z,622.00
2023-12-15T04:31:05.747Z,620.00
2023-12-15T04:32:05.834Z,619.00
2023-12-15T04:33:05.941Z,619.00
2023-12-15T04:34:05.946Z,620.00
2023-12-15T04:35:06.056Z,619.00
2023-12-15T04:36:06.089Z,623.00
2023-12-15T04:37:13.920Z,628.00
2023-12-15T04:38:13.938Z,623.00
2023-12-15T04:39:13.919Z,627.00
2023-12-15T04:40:13.911Z,627.00
2023-12-15T04:41:13.969Z,625.00
2023-12-15T04:42:13.945Z,626.00
2023-12-15T04:43:13.938Z,627.00
2023-12-15T04:44:13.928Z,627.00
2023-12-15T04:45:13.911Z,628.00
2023-12-15T04:46:13.905Z,625.00
2023-12-15T04:47:13.973Z,626.00
2023-12-15T04:48:13.993Z,627.00
2023-12-15T04:49:13.988Z,628.00
2023-12-15T04:50:13.976Z,629.00
2023-12-15T04:51:13.928Z,628.00
2023-12-15T04:52:13.928Z,626.00
2023-12-15T04:53:13.990Z,628.00
2023-12-15T04:54:13.934Z,629.00
2023-12-15T04:55:13.946Z,630.00
2023-12-15T04:56:13.974Z,633.00
2023-12-15T04:57:13.945Z,632.00
2023-12-15T04:58:13.983Z,631.00
2023-12-15T04:59:14.012Z,631.00
2023-12-15T05:00:13.997Z,628.00
2023-12-15T05:01:13.966Z,630.00
2023-12-15T05:02:14.058Z,629.00
2023-12-15T05:03:14.006Z,631.00
2023-12-15T05:04:13.982Z,630.00
2023-12-15T05:05:14.056Z,630.00
2023-12-15T05:06:14.105Z,631.00
2023-12-15T05:07:14.156Z,632.00
2023-12-15T05:08:14.282Z,630.00
2023-12-15T05:09:14.263Z,629.00
2023-12-15T05:10:14.358Z,628.00
2023-12-15T05:11:14.331Z,629.00
2023-12-15T05:12:14.390Z,630.00
2023-12-15T05:13:14.427Z,628.00
2023-12-15T05:14:14.506Z,624.00
2023-12-15T05:15:14.502Z,623.00
2023-12-15T05:16:14.571Z,625.00
2023-12-15T05:17:14.647Z,626.00
2023-12-15T05:18:14.794Z,627.00
2023-12-15T05:19:14.910Z,626.00
2023-12-15T05:20:14.726Z,627.00
2023-12-15T05:21:14.751Z,629.00
2023-12-15T05:22:14.791Z,632.00
2023-12-15T05:23:14.873Z,633.00
2023-12-15T05:24:14.843Z,633.00
2023-12-15T05:25:14.868Z,634.00
2023-12-15T05:26:15.597Z,632.00
2023-12-15T05:27:14.926Z,631.00
2023-12-15T05:28:14.950Z,626.00
2023-12-15T05:29:14.963Z,625.00
2023-12-15T05:30:15.023Z,624.00
2023-12-15T05:31:14.990Z,624.00
2023-12-15T05:32:15.132Z,626.00
2023-12-15T05:33:15.094Z,626.00
2023-12-15T05:34:15.147Z,626.00
2023-12-15T05:35:15.062Z,626.00
2023-12-15T05:36:15.057Z,626.00
2023-12-15T05:37:15.073Z,625.00
2023-12-15T05:38:15.209Z,625.00
2023-12-15T05:39:15.044Z,625.00
2023-12-15T05:40:15.087Z,626.00
2023-12-15T05:41:15.135Z,625.00
2023-12-15T05:42:15.091Z,626.00
2023-12-15T05:43:15.069Z,624.00
2023-12-15T05:44:15.155Z,628.00
2023-12-15T05:45:15.114Z,628.00
2023-12-15T05:46:15.154Z,628.00
2023-12-15T05:47:15.185Z,629.00
2023-12-15T05:48:15.338Z,630.00
2023-12-15T05:49:15.328Z,630.00
2023-12-15T05:50:15.356Z,630.00
2023-12-15T05:51:15.214Z,629.00
2023-12-15T05:52:15.215Z,628.00
2023-12-15T05:53:15.254Z,626.00
2023-12-15T05:54:15.236Z,627.00
2023-12-15T05:55:15.253Z,629.00
2023-12-15T05:56:15.281Z,631.00
2023-12-15T05:57:15.260Z,630.00
2023-12-15T05:58:15.287Z,630.00
2023-12-15T05:59:15.308Z,632.00
2023-12-15T06:00:15.290Z,631.00
2023-12-15T06:01:37.789Z,629.00
2023-12-15T06:02:15.362Z,627.00
2023-12-15T06:03:15.350Z,628.00
2023-12-15T06:04:15.333Z,627.00
2023-12-15T06:05:15.382Z,628.00
2023-12-15T06:06:15.431Z,626.00
2023-12-15T06:07:15.319Z,625.00
2023-12-15T06:08:15.420Z,624.00
2023-12-15T06:09:15.307Z,623.00
2023-12-15T06:10:15.332Z,624.00
2023-12-15T06:11:15.332Z,625.00
2023-12-15T06:12:15.316Z,623.00
2023-12-15T06:13:15.299Z,623.00
2023-12-15T06:14:15.391Z,624.00
2023-12-15T06:15:15.321Z,625.00
2023-12-15T06:16:15.402Z,627.00
2023-12-15T06:17:15.324Z,624.00
2023-12-15T06:18:15.403Z,623.00
2023-12-15T06:19:15.375Z,624.00
2023-12-15T06:20:15.416Z,625.00
2023-12-15T06:21:15.318Z,627.00
2023-12-15T06:22:15.356Z,626.00
2023-12-15T06:23:15.365Z,626.00
2023-12-15T06:24:15.361Z,624.00
2023-12-15T06:25:15.321Z,626.00
2023-12-15T06:26:15.347Z,625.00
2023-12-15T06:27:15.353Z,626.00
2023-12-15T06:28:15.327Z,625.00
2023-12-15T06:29:15.391Z,626.00
2023-12-15T06:30:15.389Z,624.00
2023-12-15T06:31:15.377Z,625.00
2023-12-15T06:32:15.324Z,627.00
2023-12-15T06:33:15.425Z,633.00
2023-12-15T06:34:15.652Z,683.00
2023-12-15T06:35:15.340Z,688.00
2023-12-15T06:36:15.350Z,702.00
2023-12-15T06:37:15.396Z,711.00
2023-12-15T06:38:15.363Z,740.00
2023-12-15T06:39:15.371Z,726.00
2023-12-15T06:40:15.356Z,771.00
2023-12-15T06:41:16.083Z,741.00
2023-12-15T06:42:15.339Z,731.00
2023-12-15T06:43:15.360Z,732.00
2023-12-15T06:44:15.374Z,768.00
2023-12-15T06:45:15.400Z,786.00
2023-12-15T06:46:38.012Z,782.00
2023-12-15T06:47:16.245Z,782.00
2023-12-15T06:48:15.583Z,791.00
2023-12-15T06:49:18.696Z,801.00
2023-12-15T06:50:15.481Z,884.00
2023-12-15T06:51:15.547Z,883.00
2023-12-15T06:52:15.530Z,921.00
2023-12-15T06:53:15.514Z,929.00
2023-12-15T06:54:15.467Z,926.00
2023-12-15T06:55:15.467Z,921.00
2023-12-15T06:56:15.480Z,929.00
2023-12-15T06:57:15.470Z,931.00
2023-12-15T06:58:15.491Z,917.00
2023-12-15T06:59:15.658Z,887.00
2023-12-15T07:00:15.476Z,892.00
2023-12-15T07:01:15.508Z,910.00
2023-12-15T07:02:15.541Z,915.00
2023-12-15T07:03:15.581Z,923.00
2023-12-15T07:04:15.600Z,923.00
2023-12-15T07:05:16.260Z,927.00
2023-12-15T07:06:15.518Z,964.00
2023-12-15T07:07:15.488Z,1039.00
2023-12-15T07:08:15.521Z,1060.00
2023-12-15T07:09:17.262Z,1101.00
2023-12-15T07:10:17.149Z,1137.00
2023-12-15T07:11:16.645Z,1163.00
2023-12-15T07:12:15.666Z,1179.00
2023-12-15T07:13:15.624Z,1213.00
2023-12-15T07:14:16.322Z,1239.00
2023-12-15T07:15:15.662Z,1257.00
2023-12-15T07:16:15.655Z,1320.00
2023-12-15T07:17:15.656Z,1331.00
2023-12-15T07:18:15.730Z,1345.00
2023-12-15T07:19:16.595Z,1349.00
2023-12-15T07:20:15.691Z,1356.00
2023-12-15T07:21:15.661Z,1369.00
2023-12-15T07:22:18.061Z,1386.00
2023-12-15T07:23:15.682Z,1425.00
2023-12-15T07:24:15.673Z,1431.00
2023-12-15T07:25:15.687Z,1449.00
2023-12-15T07:26:15.687Z,1466.00
2023-12-15T07:27:15.673Z,1487.00
2023-12-15T07:28:15.676Z,1514.00
2023-12-15T07:29:15.693Z,1561.00
2023-12-15T07:30:15.714Z,1568.00
2023-12-15T07:31:15.693Z,1569.00
2023-12-15T07:32:15.716Z,1583.00
2023-12-15T07:33:15.719Z,1599.00
2023-12-15T07:34:16.267Z,1616.00
2023-12-15T07:35:24.958Z,1638.00
2023-12-15T07:36:16.791Z,1705.00
2023-12-15T07:37:15.707Z,1700.00
2023-12-15T07:38:15.742Z,1726.00
2023-12-15T07:39:16.177Z,1737.00
2023-12-15T07:40:15.708Z,1741.00
2023-12-15T07:41:15.684Z,1711.00
2023-12-15T07:42:15.690Z,1615.00
2023-12-15T07:43:15.682Z,1641.00
2023-12-15T07:44:15.818Z,1673.00
2023-12-15T07:45:15.793Z,1688.00
2023-12-15T07:46:16.684Z,1716.00
2023-12-15T07:47:15.915Z,1738.00
2023-12-15T07:48:16.164Z,1754.00
2023-12-15T07:49:16.053Z,1769.00
2023-12-15T07:50:16.133Z,1821.00
2023-12-15T07:51:16.214Z,1828.00
2023-12-15T07:52:16.210Z,1838.00
2023-12-15T07:53:16.310Z,1851.00
2023-12-15T07:54:16.294Z,1863.00
2023-12-15T07:55:16.369Z,1874.00
2023-12-15T07:56:16.449Z,1893.00
2023-12-15T07:57:16.473Z,1908.00
2023-12-15T07:58:16.568Z,1940.00
2023-12-15T07:59:19.159Z,1947.00
2023-12-15T08:00:16.595Z,1977.00
2023-12-15T08:01:16.614Z,1991.00
2023-12-15T08:02:16.610Z,2004.00
2023-12-15T08:03:16.635Z,2021.00
2023-12-15T08:04:16.601Z,2040.00
2023-12-15T08:05:16.673Z,2053.00
2023-12-15T08:06:16.718Z,2064.00
2023-12-15T08:07:16.615Z,2070.00
2023-12-15T08:08:16.623Z,2077.00
2023-12-15T08:09:16.556Z,2095.00
2023-12-15T08:10:16.857Z,2108.00
2023-12-15T08:11:17.408Z,2109.00
2023-12-15T08:12:16.611Z,2112.00
2023-12-15T08:13:16.624Z,2107.00
2023-12-15T08:14:16.690Z,2103.00
2023-12-15T08:15:16.614Z,2103.00
2023-12-15T08:16:16.591Z,2094.00
2023-12-15T08:17:16.631Z,2085.00
2023-12-15T08:18:16.755Z,2059.00
2023-12-15T08:19:16.712Z,2054.00
2023-12-15T08:20:16.617Z,2052.00
2023-12-15T08:21:16.623Z,2052.00
2023-12-15T08:22:16.634Z,2050.00
2023-12-15T08:23:16.597Z,2042.00
2023-12-15T08:24:16.676Z,2035.00
2023-12-15T08:25:16.622Z,2032.00
2023-12-15T08:26:16.677Z,2030.00
2023-12-15T08:27:16.626Z,2040.00
2023-12-15T08:28:16.635Z,2046.00
2023-12-15T08:29:16.681Z,2056.00
2023-12-15T08:30:16.625Z,2064.00
2023-12-15T08:31:16.625Z,2065.00
2023-12-15T08:32:16.716Z,2052.00
2023-12-15T08:33:16.736Z,1227.00
2023-12-15T08:34:16.693Z,1339.00
2023-12-15T08:35:16.664Z,1303.00
2023-12-15T08:36:16.611Z,1324.00
2023-12-15T08:37:16.621Z,1232.00
2023-12-15T08:38:16.648Z,1192.00
2023-12-15T08:39:18.079Z,1169.00
2023-12-15T08:40:16.694Z,1149.00
2023-12-15T08:41:16.631Z,1138.00
2023-12-15T08:42:16.664Z,1149.00
2023-12-15T08:43:16.659Z,1302.00
2023-12-15T08:44:24.443Z,1202.00
2023-12-15T08:45:17.765Z,1220.00
2023-12-15T08:46:16.684Z,1263.00
2023-12-15T08:47:16.671Z,1281.00
2023-12-15T08:48:16.868Z,1384.00
2023-12-15T08:49:16.751Z,1431.00
2023-12-15T08:50:16.684Z,1478.00
2023-12-15T08:51:16.641Z,1513.00
2023-12-15T08:52:16.655Z,1539.00
2023-12-15T08:53:16.691Z,1566.00
2023-12-15T08:54:17.903Z,1624.00
2023-12-15T08:55:16.642Z,1650.00
2023-12-15T08:56:16.799Z,1664.00
2023-12-15T08:57:16.749Z,1677.00
2023-12-15T08:58:16.726Z,1698.00
2023-12-15T08:59:17.228Z,1737.00
2023-12-15T09:00:16.824Z,1756.00
2023-12-15T09:01:16.945Z,1779.00
2023-12-15T09:02:17.039Z,1789.00
2023-12-15T09:03:17.082Z,1803.00
2023-12-15T09:04:17.083Z,1840.00
2023-12-15T09:05:30.496Z,1858.00
2023-12-15T09:06:26.484Z,1904.00
2023-12-15T09:07:18.221Z,1920.00
2023-12-15T09:08:17.268Z,1919.00
2023-12-15T09:09:17.282Z,1918.00
2023-12-15T09:10:17.180Z,1974.00
2023-12-15T09:11:17.163Z,1987.00
2023-12-15T09:12:17.136Z,1980.00
2023-12-15T09:13:17.172Z,1901.00
2023-12-15T09:14:17.319Z,1891.00
2023-12-15T09:15:17.144Z,1747.00
2023-12-15T09:16:17.271Z,1698.00
2023-12-15T09:17:17.159Z,1595.00
2023-12-15T09:18:17.337Z,1575.00
2023-12-15T09:19:17.209Z,1455.00
2023-12-15T09:20:17.214Z,1371.00
2023-12-15T09:21:17.159Z,1371.00
2023-12-15T09:22:17.163Z,1405.00
2023-12-15T09:23:17.213Z,1484.00
2023-12-15T09:24:17.199Z,1487.00
2023-12-15T09:25:17.227Z,1496.00
2023-12-15T09:26:17.288Z,1523.00
2023-12-15T09:27:17.231Z,1542.00
2023-12-15T09:28:17.168Z,1553.00
2023-12-15T09:29:17.204Z,1568.00
2023-12-15T09:30:17.218Z,1578.00
2023-12-15T09:31:17.195Z,1613.00
2023-12-15T09:32:17.234Z,1692.00
2023-12-15T09:33:17.290Z,1722.00
2023-12-15T09:34:17.233Z,1720.00
2023-12-15T09:35:17.241Z,1589.00
2023-12-15T09:36:17.248Z,1598.00
2023-12-15T09:37:17.240Z,1582.00
2023-12-15T09:38:17.202Z,1546.00
2023-12-15T09:39:17.217Z,1469.00
2023-12-15T09:40:17.216Z,1343.00
2023-12-15T09:41:17.256Z,1250.00
2023-12-15T09:42:17.211Z,1138.00
2023-12-15T09:43:17.210Z,1038.00
2023-12-15T09:44:17.230Z,1028.00
2023-12-15T09:45:17.243Z,1014.00
2023-12-15T09:46:17.242Z,1021.00
2023-12-15T09:47:17.295Z,1025.00
2023-12-15T09:48:17.314Z,1023.00
2023-12-15T09:49:17.289Z,1057.00
2023-12-15T09:50:17.908Z,1079.00
2023-12-15T09:51:17.333Z,1024.00
2023-12-15T09:52:17.343Z,881.00
2023-12-15T09:53:17.439Z,998.00
2023-12-15T09:54:17.463Z,1037.00
2023-12-15T09:55:17.726Z,1061.00
2023-12-15T09:56:17.597Z,1093.00
2023-12-15T09:57:17.638Z,1215.00
2023-12-15T09:58:17.715Z,1270.00
2023-12-15T09:59:17.750Z,1283.00
2023-12-15T10:00:18.268Z,1286.00
2023-12-15T10:01:17.925Z,1296.00
2023-12-15T10:02:17.968Z,1307.00
2023-12-15T10:03:17.994Z,1326.00
2023-12-15T10:04:17.974Z,1344.00
2023-12-15T10:05:18.027Z,1363.00
2023-12-15T10:06:18.103Z,1387.00
2023-12-15T10:07:18.078Z,1402.00
2023-12-15T10:08:18.118Z,1394.00
2023-12-15T10:09:18.201Z,1378.00
2023-12-15T10:10:18.126Z,1296.00
2023-12-15T10:11:18.240Z,1278.00
2023-12-15T10:12:18.145Z,1268.00
2023-12-15T10:13:18.161Z,1265.00
2023-12-15T10:14:18.228Z,1245.00
2023-12-15T10:15:18.250Z,1205.00
2023-12-15T10:16:18.276Z,1190.00
2023-12-15T10:17:18.379Z,1169.00
2023-12-15T10:18:24.154Z,1143.00
2023-12-15T10:19:19.420Z,1080.00
2023-12-15T10:20:18.452Z,1068.00
2023-12-15T10:21:18.355Z,1058.00
2023-12-15T10:22:18.360Z,1051.00
2023-12-15T10:23:18.354Z,1044.00
2023-12-15T10:24:18.395Z,1038.00
2023-12-15T10:25:18.373Z,1013.00
2023-12-15T10:26:18.436Z,1016.00
2023-12-15T10:27:18.350Z,1021.00
2023-12-15T10:28:18.355Z,1013.00
2023-12-15T10:29:18.502Z,1049.00
2023-12-15T10:30:18.794Z,1037.00
2023-12-15T10:31:18.377Z,1041.00
2023-12-15T10:32:18.423Z,1086.00
2023-12-15T10:33:18.582Z,1028.00
2023-12-15T10:34:18.528Z,1041.00
2023-12-15T10:35:18.672Z,1026.00
2023-12-15T10:36:18.610Z,1081.00
2023-12-15T10:37:18.666Z,1128.00
2023-12-15T10:38:18.687Z,1145.00
2023-12-15T10:39:18.765Z,1149.00
2023-12-15T10:40:19.252Z,1160.00
2023-12-15T10:41:18.914Z,1158.00
2023-12-15T10:42:18.848Z,1167.00
2023-12-15T10:43:18.908Z,1172.00
2023-12-15T10:44:18.961Z,1274.00
2023-12-15T10:45:19.285Z,1257.00
2023-12-15T10:46:19.008Z,1243.00
2023-12-15T10:47:19.011Z,1252.00
2023-12-15T10:48:19.127Z,1250.00
2023-12-15T10:49:19.079Z,1260.00
2023-12-15T10:50:19.176Z,1328.00
2023-12-15T10:51:19.030Z,1354.00
2023-12-15T10:52:19.069Z,1377.00
2023-12-15T10:53:19.099Z,1391.00
2023-12-15T10:54:19.237Z,1402.00
2023-12-15T10:55:19.245Z,1420.00
2023-12-15T10:56:19.329Z,1433.00
2023-12-15T10:57:19.380Z,1453.00
2023-12-15T10:58:19.428Z,1467.00
2023-12-15T10:59:20.270Z,1521.00
2023-12-15T11:00:19.483Z,1564.00
2023-12-15T11:01:19.499Z,1568.00
2023-12-15T11:02:19.632Z,1571.00
2023-12-15T11:03:19.584Z,1582.00
2023-12-15T11:04:19.563Z,1599.00
2023-12-15T11:06:19.663Z,1646.00
2023-12-15T11:07:19.803Z,1662.00
2023-12-15T11:08:19.866Z,1671.00
2023-12-15T11:09:19.755Z,1686.00
2023-12-15T11:10:19.839Z,1702.00
2023-12-15T11:11:19.997Z,1739.00
2023-12-15T11:12:19.899Z,1761.00
2023-12-15T11:13:19.954Z,1787.00
2023-12-15T11:14:20.031Z,1809.00
2023-12-15T11:15:20.000Z,1825.00
2023-12-15T11:16:20.074Z,1826.00
2023-12-15T11:17:20.124Z,1830.00
2023-12-15T11:18:20.271Z,1841.00
2023-12-15T11:19:20.215Z,1853.00
2023-12-15T11:20:20.271Z,1872.00
2023-12-15T11:21:20.211Z,1899.00
2023-12-15T11:22:20.206Z,1931.00
2023-12-15T11:23:20.280Z,1933.00
2023-12-15T11:24:20.279Z,1954.00
2023-12-15T11:25:20.333Z,1977.00
2023-12-15T11:26:20.342Z,1994.00
2023-12-15T11:27:20.334Z,2013.00
2023-12-15T11:28:20.348Z,2017.00
2023-12-15T11:29:20.384Z,2028.00
2023-12-15T11:30:20.436Z,2055.00
2023-12-15T11:31:20.779Z,2070.00
2023-12-15T11:32:20.504Z,2076.00
2023-12-15T11:33:20.498Z,2094.00
2023-12-15T11:34:20.585Z,2101.00
2023-12-15T11:35:20.557Z,2131.00
2023-12-15T11:36:20.820Z,2121.00
2023-12-15T11:37:20.517Z,1938.00
2023-12-15T11:38:20.661Z,1956.00
2023-12-15T11:39:20.667Z,2046.00
2023-12-15T11:40:20.686Z,2021.00
2023-12-15T11:41:21.040Z,1995.00
2023-12-15T11:42:20.758Z,1973.00
2023-12-15T11:43:20.784Z,1963.00
2023-12-15T11:44:20.895Z,1955.00
2023-12-15T11:45:20.958Z,1959.00
2023-12-15T11:46:20.932Z,1963.00
2023-12-15T11:47:21.037Z,1965.00
2023-12-15T11:48:21.123Z,1961.00
2023-12-15T11:49:21.154Z,1958.00
2023-12-15T11:50:21.216Z,1957.00
2023-12-15T11:51:21.220Z,1954.00
2023-12-15T11:52:21.225Z,1956.00
2023-12-15T11:53:21.354Z,1956.00
2023-12-15T11:54:21.308Z,1960.00
2023-12-15T11:55:21.373Z,1961.00
2023-12-15T11:56:21.398Z,1966.00
2023-12-15T11:57:21.393Z,1969.00
2023-12-15T11:58:21.453Z,1969.00
2023-12-15T11:59:21.512Z,1964.00
2023-12-15T12:00:21.542Z,1962.00
2023-12-15T12:01:21.624Z,1965.00
2023-12-15T12:02:22.632Z,1968.00
2023-12-15T12:03:21.664Z,1969.00
2023-12-15T12:04:21.842Z,1971.00
2023-12-15T12:05:21.796Z,1976.00
2023-12-15T12:06:22.208Z,1972.00
2023-12-15T12:07:21.848Z,1972.00
2023-12-15T12:08:21.901Z,1972.00
2023-12-15T12:09:21.955Z,1941.00
2023-12-15T12:10:21.976Z,1916.00
2023-12-15T12:11:22.038Z,1905.00
2023-12-15T12:12:22.082Z,1850.00
2023-12-15T12:13:22.202Z,1860.00
2023-12-15T12:14:22.270Z,1854.00
2023-12-15T12:15:22.313Z,1752.00
2023-12-15T12:16:22.392Z,1736.00
2023-12-15T12:17:22.491Z,1713.00
2023-12-15T12:18:22.634Z,1693.00
2023-12-15T12:19:22.599Z,1681.00
2023-12-15T12:20:22.788Z,1678.00